Latest Weather Observations for Moomba Airport

IDS60801

Issued at 5:01 am CST Saturday 30 April 2016 (issued every 30 minutes, with the page automatically refreshed every 10 minutes)

About weather observations | Map of weather stations | Latest weather observations for SA | Other Formats
Station Details ID: 017123 Name: MOOMBA AIRPORT Lat: -28.10 Lon: 140.20 Height: 37.8 m
Data from the previous 72 hours. | See also: Recent months at Moomba Airport
Date/Time
CST
Temp
°C
App
Temp
°C
Dew
Point
Rel
Hum
%
Delta-T
°C
Wind Press
QNH
hPa
Press
MSL
hPa
Rain
since 9 am
mm
Dir
 
Spd
km/h
Gust
km/h
Spd
kts
Gust
kts
30/05:00am 22.0 21.7 15.4 66 3.9 E 11 13 6 7 1014.1 1014.0 0.0
30/04:30am 22.2 21.5 15.3 65 4.1 E 13 17 7 9 1013.7 1013.6 0.0
30/04:00am 22.4 21.7 15.3 64 4.2 ESE 13 17 7 9 1013.7 1013.6 0.0
30/03:30am 22.8 22.1 15.4 63 4.4 ESE 13 17 7 9 1013.6 1013.5 0.0
30/03:00am 23.1 22.5 15.7 63 4.5 ESE 13 17 7 9 1013.6 1013.5 0.0
30/02:30am 23.3 22.7 15.6 62 4.6 SE 13 19 7 10 1013.7 1013.6 0.0
30/02:00am 23.6 22.6 15.6 61 4.8 SE 15 20 8 11 1014.0 1013.9 0.0
30/01:30am 23.8 23.7 16.1 62 4.7 SSE 11 15 6 8 1014.2 1014.1 0.0
30/01:00am 23.4 23.2 15.7 62 4.6 ENE 11 17 6 9 1014.1 1014.0 0.0
30/12:30am 23.2 21.9 14.7 58 5.0 ENE 15 17 8 9 1014.0 1013.9 0.0
30/12:00am 23.4 22.8 14.7 58 5.2 E 11 15 6 8 1014.3 1014.2 0.0
 
Date/Time
CST
Temp
°C
App
Temp
°C
Dew
Point
Rel
Hum
%
Delta-T
°C
Wind Press
QNH
hPa
Press
MSL
hPa
Rain
since 9 am
mm
Dir
 
Spd
km/h
Gust
km/h
Spd
kts
Gust
kts
29/11:30pm 23.5 23.2 14.5 57 5.3 E 9 13 5 7 1014.6 1014.5 0.0
29/11:00pm 23.8 23.1 14.2 55 5.7 E 11 15 6 8 1014.7 1014.6 0.0
29/10:30pm 24.2 23.0 14.0 53 6.0 ESE 13 17 7 9 1015.0 1014.9 0.0
29/10:00pm 24.7 23.6 14.2 52 6.2 ESE 13 17 7 9 1015.3 1015.2 0.0
29/09:30pm 25.4 24.3 14.2 50 6.6 SE 13 19 7 10 1015.5 1015.4 0.0
29/09:00pm 25.7 24.6 14.2 49 6.8 SE 13 19 7 10 1015.7 1015.6 0.0
29/08:30pm 25.9 24.8 14.4 49 6.9 SE 13 19 7 10 1015.4 1015.3 0.0
29/08:00pm 26.2 24.3 14.3 48 7.1 SE 17 22 9 12 1015.3 1015.2 0.0
29/07:30pm 26.5 24.5 13.9 45 7.5 SE 17 26 9 14 1014.9 1014.8 0.0
29/07:00pm 27.1 25.2 14.1 44 7.8 SE 17 22 9 12 1014.5 1014.4 0.0
29/06:30pm 27.5 25.2 14.2 44 8.0 SSE 19 24 10 13 1014.2 1014.1 0.0
29/06:00pm 27.9 25.5 13.8 42 8.4 SSE 19 28 10 15 1014.0 1013.9 0.0
29/05:30pm 28.7 26.3 13.8 40 8.9 SSE 19 24 10 13 1013.7 1013.6 0.0
29/05:00pm 29.6 27.8 13.4 37 9.7 S 15 20 8 11 1013.3 1013.2 0.0
29/04:30pm 30.0 28.3 13.7 37 9.8 S 15 19 8 10 1013.0 1012.9 0.0
29/04:00pm 30.2 28.8 13.5 36 10.0 S 13 17 7 9 1012.9 1012.8 0.0
29/03:30pm 30.5 28.4 13.7 35 10.1 S 17 26 9 14 1012.6 1012.5 0.0
29/03:00pm 30.8 28.1 13.6 35 10.3 SSW 20 30 11 16 1012.5 1012.4 0.0
29/02:30pm 30.0 26.2 13.7 37 9.8 SSW 26 35 14 19 1012.3 1012.2 0.0
29/02:00pm 29.9 25.3 13.6 36 9.8 SSW 30 41 16 22 1012.1 1012.0 0.0
29/01:30pm 29.4 24.3 13.2 37 9.6 SSW 32 41 17 22 1011.8 1011.7 0.0
29/01:12pm 31.9 27.6 13.2 32 11.2 NW 28 46 15 25 1012.2 1012.1 0.0
29/01:00pm 33.5 28.9 13.5 29 12.1 NNW 30 39 16 21 1012.0 1011.9 0.0
29/12:30pm 33.2 28.7 13.8 31 11.8 NNW 30 43 16 23 1012.5 1012.4 0.0
29/12:00pm 33.0 28.4 14.6 33 11.3 NNW 32 43 17 23 1013.1 1013.0 0.0
29/11:30am 32.3 26.7 14.4 33 11.0 N 37 48 20 26 1013.4 1013.3 0.0
29/11:00am 32.0 26.8 14.6 34 10.7 N 35 46 19 25 1013.8 1013.7 0.0
29/10:30am 30.9 25.7 14.5 37 10.0 N 35 43 19 23 1014.3 1014.2 0.0
29/10:00am 29.6 24.3 14.2 39 9.3 N 35 44 19 24 1014.7 1014.6 0.0
29/09:30am 28.9 24.0 14.3 40 8.8 N 33 43 18 23 1014.9 1014.8 0.0
29/09:00am 27.8 23.8 14.1 43 8.2 N 28 33 15 18 1014.8 1014.7 0.0
29/08:30am 26.3 22.3 13.1 44 7.7 NNE 26 32 14 17 1014.6 1014.5 0.0
29/08:00am 25.2 22.2 12.4 45 7.4 NNE 20 26 11 14 1014.5 1014.4 0.0
29/07:30am 24.4 21.5 12.4 47 6.9 NNE 19 24 10 13 1014.4 1014.3 0.0
29/07:00am 24.0 21.4 12.0 47 6.8 NNE 17 20 9 11 1014.2 1014.1 0.0
29/06:30am 23.1 20.4 11.8 49 6.4 NNE 17 19 9 10 1013.9 1013.8 0.0
29/06:00am 22.2 20.2 11.6 51 5.9 NNE 13 15 7 8 1013.4 1013.3 0.0
29/05:30am 22.1 20.1 11.5 51 5.9 NNE 13 13 7 7 1013.4 1013.3 0.0
29/05:00am 22.3 20.4 11.7 51 5.9 NNE 13 15 7 8 1013.1 1013.0 0.0
29/04:30am 23.3 21.1 12.0 49 6.4 NNE 15 17 8 9 1012.9 1012.8 0.0
29/04:00am 24.0 21.5 12.3 48 6.7 NNE 17 20 9 11 1012.9 1012.8 0.0
29/03:30am 22.5 20.3 10.9 48 6.4 NNE 13 13 7 7 1013.1 1013.0 0.0
29/03:00am 22.7 20.9 10.8 47 6.6 NNE 11 13 6 7 1013.2 1013.1 0.0
29/02:30am 22.0 19.8 10.8 49 6.2 NE 13 15 7 8 1013.3 1013.2 0.0
29/02:00am 21.5 19.9 10.3 49 6.1 NNE 9 9 5 5 1013.3 1013.2 0.0
29/01:30am 23.0 21.3 11.1 47 6.6 N 11 13 6 7 1013.7 1013.6 0.0
29/01:00am 23.2 21.5 11.3 47 6.7 NNW 11 13 6 7 1013.6 1013.5 0.0
29/12:30am 23.7 22.1 11.4 46 6.9 N 11 13 6 7 1013.7 1013.6 0.0
29/12:00am 24.7 23.2 12.0 45 7.2 NNE 11 13 6 7 1013.6 1013.5 0.0
 
Date/Time
CST
Temp
°C
App
Temp
°C
Dew
Point
Rel
Hum
%
Delta-T
°C
Wind Press
QNH
hPa
Press
MSL
hPa
Rain
since 9 am
mm
Dir
 
Spd
km/h
Gust
km/h
Spd
kts
Gust
kts
28/11:30pm 23.8 23.1 12.1 48 6.7 NNE 7 9 4 5 1014.2 1014.1 0.0
28/11:00pm 23.9 22.6 12.5 49 6.5 NE 11 13 6 7 1014.3 1014.2 0.0
28/10:30pm 24.0 23.3 13.2 50 6.3 ENE 9 13 5 7 1014.5 1014.4 0.0
28/10:00pm 24.1 23.1 13.3 51 6.3 E 11 13 6 7 1014.8 1014.7 0.0
28/09:30pm 24.5 23.5 13.4 50 6.5 E 11 13 6 7 1014.6 1014.5 0.0
28/09:00pm 25.2 24.4 14.0 49 6.6 E 11 13 6 7 1014.6 1014.5 0.0
28/08:30pm 25.2 25.4 14.6 51 6.3 E 7 9 4 5 1014.7 1014.6 0.0
28/08:00pm 26.2 25.8 13.0 44 7.7 ESE 7 9 4 5 1014.3 1014.2 0.0
28/07:30pm 26.7 27.9 13.8 45 7.6 CALM 0 0 0 0 1014.4 1014.3 0.0
28/07:00pm 27.4 27.1 13.4 42 8.3 ESE 7 9 4 5 1014.2 1014.1 0.0
28/06:30pm 28.7 28.4 13.4 39 9.1 SE 7 9 4 5 1013.9 1013.8 0.0
28/06:00pm 29.4 29.2 13.6 38 9.4 SE 7 9 4 5 1013.6 1013.5 0.0
28/05:30pm 30.3 29.9 13.1 34 10.2 ESE 7 9 4 5 1013.6 1013.5 0.0
28/05:00pm 30.6 31.0 12.5 33 10.7 ENE 2 7 1 4 1013.6 1013.5 0.0
28/04:30pm 30.1 26.5 14.2 38 9.6 NNE 26 39 14 21 1013.6 1013.5 0.0
28/04:26pm 29.9 27.7 14.4 38 9.4 N 19 39 10 21 1013.5 1013.4 0.0
28/04:00pm 31.9 30.2 11.1 28 12.1 NW 11 15 6 8 1013.3 1013.2 0.0
28/03:30pm 31.9 31.1 11.1 28 12.1 NW 6 15 3 8 1013.3 1013.2 0.0
28/03:00pm 31.8 29.7 11.0 28 12.1 N 13 19 7 10 1013.6 1013.5 0.0
28/02:30pm 32.5 31.5 11.1 27 12.5 NNE 7 13 4 7 1013.6 1013.5 0.0
28/02:00pm 32.0 29.5 11.2 28 12.1 N 15 24 8 13 1013.9 1013.8 0.0
28/01:30pm 32.5 29.8 10.5 26 12.7 N 15 26 8 14 1014.3 1014.2 0.0
28/01:00pm 31.3 28.7 10.6 28 11.9 NNE 15 20 8 11 1014.8 1014.7 0.0
28/12:30pm 31.5 29.3 10.8 28 11.9 NNE 13 19 7 10 1015.4 1015.3 0.0
28/12:00pm 31.4 29.2 10.7 28 11.9 N 13 22 7 12 1016.1 1016.0 0.0
28/11:30am 30.4 27.5 9.8 28 11.6 NNE 15 20 8 11 1016.5 1016.4 0.0
28/11:00am 29.6 26.6 9.2 28 11.4 NE 15 19 8 10 1016.9 1016.8 0.0
28/10:30am 28.3 24.3 9.1 30 10.6 NNE 20 24 11 13 1017.2 1017.1 0.0
28/10:00am 28.2 24.5 9.5 31 10.4 NE 19 26 10 14 1017.6 1017.5 0.0
28/09:30am 27.3 23.8 8.7 31 10.1 ENE 17 20 9 11 1017.7 1017.6 0.0
28/09:00am 25.0 22.3 7.2 32 9.3 ENE 11 15 6 8 1017.7 1017.6 0.0
28/08:30am 22.7 19.1 5.2 32 8.7 E 13 15 7 8 1017.6 1017.5 0.0
28/08:00am 20.5 17.5 4.1 34 7.9 ENE 9 11 5 6 1017.2 1017.1 0.0
28/07:30am 19.8 16.4 3.9 35 7.6 E 11 15 6 8 1017.0 1016.9 0.0
28/07:00am 18.1 14.9 2.8 36 7.0 E 9 11 5 6 1016.8 1016.7 0.0
28/06:30am 17.2 13.1 2.4 37 6.7 E 13 15 7 8 1016.6 1016.5 0.0
28/06:00am 17.6 14.0 2.8 37 6.8 E 11 13 6 7 1016.4 1016.3 0.0
28/05:30am 17.2 12.7 2.4 37 6.7 E 15 17 8 9 1016.1 1016.0 0.0
28/05:00am 17.4 12.9 2.2 36 6.9 E 15 17 8 9 1016.0 1015.9 0.0
28/04:30am 17.0 12.8 1.8 36 6.8 E 13 15 7 8 1016.1 1016.0 0.0
28/04:00am 17.5 13.7 1.9 35 7.0 E 11 13 6 7 1016.0 1015.9 0.0
28/03:30am 18.1 14.4 2.4 35 7.2 E 11 13 6 7 1015.9 1015.8 0.0
28/03:00am 17.9 14.2 2.6 36 7.0 E 11 13 6 7 1016.2 1016.1 0.0
28/02:30am 17.4 13.3 2.2 36 6.9 E 13 13 7 7 1016.3 1016.2 0.0
28/02:00am 16.9 13.2 2.1 37 6.7 E 11 13 6 7 1016.6 1016.5 0.0
28/01:30am 17.0 13.2 1.8 36 6.8 E 11 13 6 7 1016.6 1016.5 0.0
28/01:00am 18.0 14.7 2.3 35 7.2 E 9 11 5 6 1016.6 1016.5 0.0
28/12:30am 17.9 14.6 2.2 35 7.1 E 9 11 5 6 1016.5 1016.4 0.0
28/12:00am 18.2 14.5 2.5 35 7.2 E 11 13 6 7 1016.6 1016.5 0.0
 
Date/Time
CST
Temp
°C
App
Temp
°C
Dew
Point
Rel
Hum
%
Delta-T
°C
Wind Press
QNH
hPa
Press
MSL
hPa
Rain
since 9 am
mm
Dir
 
Spd
km/h
Gust
km/h
Spd
kts
Gust
kts
27/11:30pm 19.4 16.1 2.7 33 7.7 E 9 11 5 6 1016.8 1016.7 0.0
27/11:00pm 19.7 16.1 3.0 33 7.8 ESE 11 13 6 7 1016.9 1016.8 0.0
27/10:30pm 20.0 16.8 2.8 32 8.0 E 9 13 5 7 1017.2 1017.1 0.0
27/10:00pm 20.2 17.0 3.0 32 8.1 E 9 11 5 6 1017.3 1017.2 0.0
27/09:30pm 20.5 17.2 2.3 30 8.4 E 9 9 5 5 1017.1 1017.0 0.0
27/09:00pm 20.8 18.1 2.6 30 8.5 E 6 7 3 4 1017.1 1017.0 0.0
27/08:30pm 21.1 17.4 2.4 29 8.7 E 11 13 6 7 1016.6 1016.5 0.0
27/08:00pm 22.0 19.3 2.7 28 9.1 ENE 6 6 3 3 1016.7 1016.6 0.0
27/07:30pm 22.6 19.8 3.2 28 9.3 NE 7 9 4 5 1016.7 1016.6 0.0
27/07:00pm 22.7 19.7 2.2 26 9.7 NE 7 9 4 5 1016.7 1016.6 0.0
27/06:30pm 24.3 21.5 3.0 25 10.3 NNE 7 7 4 4 1016.7 1016.6 0.0
27/06:00pm 25.6 22.9 3.6 24 10.9 NNE 7 9 4 5 1016.3 1016.2 0.0
27/05:30pm 26.9 23.8 3.4 22 11.7 NNE 9 11 5 6 1016.2 1016.1 0.0
27/05:00pm 28.6 24.1 4.2 21 12.4 NE 17 19 9 10 1015.8 1015.7 0.0
27/04:30pm 29.3 25.5 4.0 20 12.9 NE 13 19 7 10 1015.8 1015.7 0.0
27/04:00pm 29.1 26.1 3.9 20 12.8 N 9 15 5 8 1015.7 1015.6 0.0
27/03:30pm 29.4 26.8 3.4 19 13.1 NNE 6 9 3 5 1015.8 1015.7 0.0
27/03:00pm 29.3 25.4 3.3 19 13.1 N 13 20 7 11 1015.9 1015.8 0.0
27/02:30pm 29.9 27.6 3.0 18 13.5 NNE 4 9 2 5 1016.0 1015.9 0.0
27/02:00pm 30.4 26.1 3.4 18 13.7 NNW 15 22 8 12 1016.2 1016.1 0.0
27/01:30pm 30.2 25.7 4.0 19 13.4 NNW 17 26 9 14 1016.3 1016.2 0.0
27/01:00pm 29.7 25.6 4.4 20 13.0 N 15 24 8 13 1016.6 1016.5 0.0
27/12:30pm 29.7 25.2 4.4 20 13.0 NNE 17 22 9 12 1016.9 1016.8 0.0
27/12:00pm 29.5 25.4 6.2 23 12.3 NNE 17 24 9 13 1017.3 1017.2 0.0
27/11:30am 29.8 25.5 7.1 24 12.2 NNE 19 24 10 13 1017.7 1017.6 0.0
27/11:00am 28.1 23.8 7.9 28 10.9 NNE 20 26 11 14 1018.0 1017.9 0.0
27/10:30am 27.8 23.1 7.6 28 10.8 NNE 22 26 12 14 1018.3 1018.2 0.0
27/10:00am 27.6 23.0 8.0 29 10.6 NNE 22 30 12 16 1018.8 1018.7 0.0
27/09:30am 26.3 20.9 7.8 31 9.9 NNE 26 32 14 17 1018.8 1018.7 0.0
27/09:00am 24.9 20.0 7.1 32 9.3 NE 22 28 12 15 1019.0 1018.9 0.0
27/08:30am 22.8 18.7 6.1 34 8.5 ENE 17 20 9 11 1018.9 1018.8 0.0
27/08:00am 20.5 17.1 5.7 38 7.4 NE 13 17 7 9 1018.9 1018.8 0.0
27/07:30am 18.7 15.2 5.5 42 6.4 ENE 13 17 7 9 1018.8 1018.7 0.0
27/07:00am 17.1 14.9 5.1 45 5.7 ENE 6 11 3 6 1018.6 1018.5 0.0
27/06:30am 16.3 13.4 4.7 46 5.5 ENE 9 13 5 7 1018.2 1018.1 0.0
27/06:00am 16.9 13.3 4.9 45 5.7 ENE 13 15 7 8 1017.9 1017.8 0.0
27/05:30am 17.5 13.5 5.1 44 5.9 ENE 15 19 8 10 1017.8 1017.7 0.0

Other Formats:

Comma delimited format used in spreadsheet applications
http://www.bom.gov.au/fwo/IDS60801/IDS60801.95481.axf

JavaScript Object Notation format (JSON) in row-major order
http://www.bom.gov.au/fwo/IDS60801/IDS60801.95481.json